sensor_id;sensor_type;location;lat;lon;timestamp;pressure;altitude;pressure_sealevel;temperature;humidity
43681;BME280;29281;50.356;30.894;2022-11-20T00:00:26;100577.30;;;0.86;89.78
43681;BME280;29281;50.356;30.894;2022-11-20T00:01:29;100577.42;;;0.80;90.86
43681;BME280;29281;50.356;30.894;2022-11-20T00:02:32;100581.72;;;0.83;90.09
43681;BME280;29281;50.356;30.894;2022-11-20T00:03:39;100587.75;;;0.86;90.07
43681;BME280;29281;50.356;30.894;2022-11-20T00:04:42;100588.61;;;0.87;88.97
43681;BME280;29281;50.356;30.894;2022-11-20T00:05:45;100586.03;;;0.85;88.41
43681;BME280;29281;50.356;30.894;2022-11-20T00:06:49;100586.95;;;0.83;88.85
43681;BME280;29281;50.356;30.894;2022-11-20T00:07:52;100598.57;;;0.69;89.64
43681;BME280;29281;50.356;30.894;2022-11-20T00:08:57;100602.05;;;0.70;89.71
43681;BME280;29281;50.356;30.894;2022-11-20T00:10:00;100602.97;;;0.67;90.05
43681;BME280;29281;50.356;30.894;2022-11-20T00:11:11;100609.05;;;0.68;89.07
43681;BME280;29281;50.356;30.894;2022-11-20T00:12:14;100616.92;;;0.66;90.31
43681;BME280;29281;50.356;30.894;2022-11-20T00:13:17;100617.70;;;0.72;89.97
43681;BME280;29281;50.356;30.894;2022-11-20T00:14:21;100620.26;;;0.75;89.52
43681;BME280;29281;50.356;30.894;2022-11-20T00:15:24;100609.68;;;0.79;89.27
43681;BME280;29281;50.356;30.894;2022-11-20T00:16:28;100614.05;;;0.79;88.23
43681;BME280;29281;50.356;30.894;2022-11-20T00:17:33;100607.03;;;0.81;88.44
43681;BME280;29281;50.356;30.894;2022-11-20T00:18:37;100616.66;;;0.79;88.25
43681;BME280;29281;50.356;30.894;2022-11-20T00:19:41;100622.75;;;0.79;88.59
43681;BME280;29281;50.356;30.894;2022-11-20T00:20:43;100623.67;;;0.77;88.58
43681;BME280;29281;50.356;30.894;2022-11-20T00:21:51;100615.98;;;0.70;89.23
43681;BME280;29281;50.356;30.894;2022-11-20T00:22:56;100616.16;;;0.61;89.49
43681;BME280;29281;50.356;30.894;2022-11-20T00:24:00;100617.84;;;0.64;89.10
43681;BME280;29281;50.356;30.894;2022-11-20T00:25:03;100610.00;;;0.64;89.12
43681;BME280;29281;50.356;30.894;2022-11-20T00:26:08;100611.70;;;0.66;89.70
43681;BME280;29281;50.356;30.894;2022-11-20T00:27:13;100609.05;;;0.68;89.42
43681;BME280;29281;50.356;30.894;2022-11-20T00:28:17;100598.57;;;0.69;89.59
43681;BME280;29281;50.356;30.894;2022-11-20T00:29:19;100605.66;;;0.63;89.37
43681;BME280;29281;50.356;30.894;2022-11-20T00:30:24;100609.29;;;0.57;90.10
43681;BME280;29281;50.356;30.894;2022-11-20T00:31:26;100606.81;;;0.50;90.05
43681;BME280;29281;50.356;30.894;2022-11-20T00:32:30;100609.58;;;0.44;90.64
43681;BME280;29281;50.356;30.894;2022-11-20T00:33:33;100606.84;;;0.48;90.39
43681;BME280;29281;50.356;30.894;2022-11-20T00:34:37;100612.07;;;0.48;90.64
43681;BME280;29281;50.356;30.894;2022-11-20T00:35:40;100620.72;;;0.52;90.41
43681;BME280;29281;50.356;30.894;2022-11-20T00:36:42;100615.49;;;0.52;91.01
43681;BME280;29281;50.356;30.894;2022-11-20T00:37:45;100614.57;;;0.54;90.58
43681;BME280;29281;50.356;30.894;2022-11-20T00:38:52;100616.30;;;0.55;90.52
43681;BME280;29281;50.356;30.894;2022-11-20T00:39:55;100623.28;;;0.55;90.13
43681;BME280;29281;50.356;30.894;2022-11-20T00:40:59;100627.64;;;0.54;90.11
43681;BME280;29281;50.356;30.894;2022-11-20T00:42:03;100632.06;;;0.51;89.97
43681;BME280;29281;50.356;30.894;2022-11-20T00:43:06;100620.00;;;0.45;89.50
43681;BME280;29281;50.356;30.894;2022-11-20T00:44:10;100630.55;;;0.39;89.61
43681;BME280;29281;50.356;30.894;2022-11-20T00:45:12;100631.52;;;0.33;90.12
43681;BME280;29281;50.356;30.894;2022-11-20T00:46:18;100623.66;;;0.35;90.12
43681;BME280;29281;50.356;30.894;2022-11-20T00:47:22;100630.61;;;0.36;89.48
43681;BME280;29281;50.356;30.894;2022-11-20T00:48:25;100629.75;;;0.35;89.50
43681;BME280;29281;50.356;30.894;2022-11-20T00:49:29;100630.83;;;0.25;89.24
43681;BME280;29281;50.356;30.894;2022-11-20T00:50:32;100626.70;;;0.14;89.31
43681;BME280;29281;50.356;30.894;2022-11-20T00:51:35;100632.86;;;0.10;89.41
43681;BME280;29281;50.356;30.894;2022-11-20T00:52:38;100631.26;;;0.01;89.51
43681;BME280;29281;50.356;30.894;2022-11-20T00:53:46;100630.39;;;0.00;89.96
43681;BME280;29281;50.356;30.894;2022-11-20T00:54:47;100636.66;;;-0.08;89.78
43681;BME280;29281;50.356;30.894;2022-11-20T00:55:54;100638.43;;;-0.10;90.10
43681;BME280;29281;50.356;30.894;2022-11-20T00:56:59;100637.45;;;-0.03;90.39
43681;BME280;29281;50.356;30.894;2022-11-20T00:58:02;100629.52;;;0.02;90.41
43681;BME280;29281;50.356;30.894;2022-11-20T00:59:08;100632.98;;;0.02;90.31
43681;BME280;29281;50.356;30.894;2022-11-20T01:00:13;100636.54;;;-0.01;89.95
43681;BME280;29281;50.356;30.894;2022-11-20T01:01:20;100634.07;;;-0.10;90.04
43681;BME280;29281;50.356;30.894;2022-11-20T01:02:24;100632.52;;;-0.20;90.31
43681;BME280;29281;50.356;30.894;2022-11-20T01:03:27;100637.88;;;-0.29;90.35
43681;BME280;29281;50.356;30.894;2022-11-20T01:04:35;100633.47;;;-0.25;90.43
43681;BME280;29281;50.356;30.894;2022-11-20T01:05:39;100635.17;;;-0.23;90.40
43681;BME280;29281;50.356;30.894;2022-11-20T01:06:44;100634.27;;;-0.20;90.76
43681;BME280;29281;50.356;30.894;2022-11-20T01:07:48;100634.27;;;-0.20;90.83
43681;BME280;29281;50.356;30.894;2022-11-20T01:08:54;100627.34;;;-0.23;90.94
43681;BME280;29281;50.356;30.894;2022-11-20T01:10:02;100611.78;;;-0.29;90.40
43681;BME280;29281;50.356;30.894;2022-11-20T01:11:10;100612.78;;;-0.36;90.04
43681;BME280;29281;50.356;30.894;2022-11-20T01:12:13;100618.87;;;-0.36;89.68
43681;BME280;29281;50.356;30.894;2022-11-20T01:13:15;100616.21;;;-0.32;90.20
43681;BME280;29281;50.356;30.894;2022-11-20T01:14:42;100622.36;;;-0.37;89.80
43681;BME280;29281;50.356;30.894;2022-11-20T01:15:46;100623.27;;;-0.39;90.44
43681;BME280;29281;50.356;30.894;2022-11-20T01:16:50;100619.96;;;-0.49;91.54
43681;BME280;29281;50.356;30.894;2022-11-20T01:17:55;100622.61;;;-0.52;91.58
43681;BME280;29281;50.356;30.894;2022-11-20T01:19:00;100619.89;;;-0.46;91.38
43681;BME280;29281;50.356;30.894;2022-11-20T01:20:05;100623.29;;;-0.41;90.86
43681;BME280;29281;50.356;30.894;2022-11-20T01:21:12;100625.83;;;-0.36;90.70
43681;BME280;29281;50.356;30.894;2022-11-20T01:22:16;100627.63;;;-0.40;89.83
43681;BME280;29281;50.356;30.894;2022-11-20T01:23:19;100631.23;;;-0.47;89.59
43681;BME280;29281;50.356;30.894;2022-11-20T01:24:22;100635.72;;;-0.56;89.59
43681;BME280;29281;50.356;30.894;2022-11-20T01:25:26;100626.13;;;-0.54;89.41
43681;BME280;29281;50.356;30.894;2022-11-20T01:26:31;100628.88;;;-0.62;89.56
43681;BME280;29281;50.356;30.894;2022-11-20T01:27:36;100628.01;;;-0.62;89.52
43681;BME280;29281;50.356;30.894;2022-11-20T01:28:39;100627.13;;;-0.61;89.32
43681;BME280;29281;50.356;30.894;2022-11-20T01:29:42;100616.64;;;-0.60;89.11
43681;BME280;29281;50.356;30.894;2022-11-20T01:30:46;100623.73;;;-0.68;89.13
43681;BME280;29281;50.356;30.894;2022-11-20T01:31:49;100629.66;;;-0.58;89.64
43681;BME280;29281;50.356;30.894;2022-11-20T01:32:51;100622.63;;;-0.53;88.93
43681;BME280;29281;50.356;30.894;2022-11-20T01:33:59;100620.84;;;-0.50;88.78
43681;BME280;29281;50.356;30.894;2022-11-20T01:35:05;100615.61;;;-0.48;88.88
43681;BME280;29281;50.356;30.894;2022-11-20T01:36:10;100617.25;;;-0.44;87.94
43681;BME280;29281;50.356;30.894;2022-11-20T01:37:14;100613.72;;;-0.40;88.32
43681;BME280;29281;50.356;30.894;2022-11-20T01:38:17;100615.46;;;-0.41;87.65
43681;BME280;29281;50.356;30.894;2022-11-20T01:39:23;100616.28;;;-0.37;88.10
43681;BME280;29281;50.356;30.894;2022-11-20T01:40:27;100617.14;;;-0.37;88.15
43681;BME280;29281;50.356;30.894;2022-11-20T01:41:31;100626.63;;;-0.31;88.08
43681;BME280;29281;50.356;30.894;2022-11-20T01:42:55;100618.70;;;-0.26;88.29
43681;BME280;29281;50.356;30.894;2022-11-20T01:44:18;100616.30;;;-0.39;87.95
43681;BME280;29281;50.356;30.894;2022-11-20T01:46:49;100613.86;;;-0.48;88.33
43681;BME280;29281;50.356;30.894;2022-11-20T01:47:48;100623.52;;;-0.54;88.79
43681;BME280;29281;50.356;30.894;2022-11-20T01:50:00;100629.33;;;-0.37;89.14
43681;BME280;29281;50.356;30.894;2022-11-20T01:51:03;100635.36;;;-0.33;88.76
43681;BME280;29281;50.356;30.894;2022-11-20T01:52:14;100624.84;;;-0.30;88.72
43681;BME280;29281;50.356;30.894;2022-11-20T01:53:18;100622.17;;;-0.26;88.99
43681;BME280;29281;50.356;30.894;2022-11-20T01:54:31;100630.84;;;-0.24;88.79
43681;BME280;29281;50.356;30.894;2022-11-20T01:55:33;100630.07;;;-0.30;88.90
43681;BME280;29281;50.356;30.894;2022-11-20T01:56:37;100627.52;;;-0.32;88.69
43681;BME280;29281;50.356;30.894;2022-11-20T01:57:40;100641.47;;;-0.34;88.28
43681;BME280;29281;50.356;30.894;2022-11-20T01:58:45;100637.24;;;-0.43;88.16
43681;BME280;29281;50.356;30.894;2022-11-20T01:59:51;100641.73;;;-0.51;88.67
43681;BME280;29281;50.356;30.894;2022-11-20T02:00:55;100637.31;;;-0.46;89.09
43681;BME280;29281;50.356;30.894;2022-11-20T02:01:58;100638.15;;;-0.46;88.96
43681;BME280;29281;50.356;30.894;2022-11-20T02:03:05;100641.59;;;-0.44;88.86
43681;BME280;29281;50.356;30.894;2022-11-20T02:04:07;100630.28;;;-0.43;88.75
43681;BME280;29281;50.356;30.894;2022-11-20T02:05:18;100642.38;;;-0.37;88.50
43681;BME280;29281;50.356;30.894;2022-11-20T02:06:23;100653.53;;;-0.29;88.04
43681;BME280;29281;50.356;30.894;2022-11-20T02:07:27;100656.02;;;-0.20;87.77
43681;BME280;29281;50.356;30.894;2022-11-20T02:08:31;100664.58;;;-0.13;87.69
43681;BME280;29281;50.356;30.894;2022-11-20T02:09:35;100668.01;;;-0.10;87.52
43681;BME280;29281;50.356;30.894;2022-11-20T02:10:39;100665.38;;;-0.08;86.96
43681;BME280;29281;50.356;30.894;2022-11-20T02:11:42;100661.86;;;-0.06;86.48
43681;BME280;29281;50.356;30.894;2022-11-20T02:12:45;100655.91;;;-0.15;87.58
43681;BME280;29281;50.356;30.894;2022-11-20T02:14:07;100657.78;;;-0.22;87.64
43681;BME280;29281;50.356;30.894;2022-11-20T02:15:11;100650.95;;;-0.30;87.40
43681;BME280;29281;50.356;30.894;2022-11-20T02:16:24;100657.84;;;-0.26;87.62
43681;BME280;29281;50.356;30.894;2022-11-20T02:17:28;100654.30;;;-0.22;87.73
43681;BME280;29281;50.356;30.894;2022-11-20T02:18:32;100658.59;;;-0.18;87.70
43681;BME280;29281;50.356;30.894;2022-11-20T02:19:38;100654.33;;;-0.24;87.76
43681;BME280;29281;50.356;30.894;2022-11-20T02:20:42;100653.38;;;-0.18;87.90
43681;BME280;29281;50.356;30.894;2022-11-20T02:24:16;100644.64;;;-0.16;87.68
43681;BME280;29281;50.356;30.894;2022-11-20T02:25:20;100647.98;;;-0.09;88.28
43681;BME280;29281;50.356;30.894;2022-11-20T02:26:24;100650.48;;;-0.02;88.34
43681;BME280;29281;50.356;30.894;2022-11-20T02:27:29;100651.27;;;0.02;87.55
43681;BME280;29281;50.356;30.894;2022-11-20T02:28:31;100657.32;;;0.04;87.35
43681;BME280;29281;50.356;30.894;2022-11-20T02:29:41;100652.96;;;0.05;87.49
43681;BME280;29281;50.356;30.894;2022-11-20T02:30:45;100655.62;;;0.02;88.03
43681;BME280;29281;50.356;30.894;2022-11-20T02:31:49;100658.23;;;0.02;87.77
43681;BME280;29281;50.356;30.894;2022-11-20T02:32:52;100662.59;;;0.01;87.16
43681;BME280;29281;50.356;30.894;2022-11-20T02:33:56;100674.94;;;-0.07;87.29
43681;BME280;29281;50.356;30.894;2022-11-20T02:35:06;100670.87;;;-0.25;87.96
43681;BME280;29281;50.356;30.894;2022-11-20T02:36:11;100669.22;;;-0.30;88.13
43681;BME280;29281;50.356;30.894;2022-11-20T02:37:15;100681.43;;;-0.31;88.45
43681;BME280;29281;50.356;30.894;2022-11-20T02:38:19;100665.59;;;-0.20;88.03
43681;BME280;29281;50.356;30.894;2022-11-20T02:39:23;100664.58;;;-0.13;88.48
43681;BME280;29281;50.356;30.894;2022-11-20T02:40:28;100662.72;;;-0.05;87.72
43681;BME280;29281;50.356;30.894;2022-11-20T02:41:37;100662.70;;;-0.04;87.71
43681;BME280;29281;50.356;30.894;2022-11-20T02:42:37;100655.67;;;0.00;87.56
43681;BME280;29281;50.356;30.894;2022-11-20T02:43:40;100654.76;;;0.01;87.68
43681;BME280;29281;50.356;30.894;2022-11-20T02:44:43;100658.16;;;0.06;87.30
43681;BME280;29281;50.356;30.894;2022-11-20T02:45:46;100650.30;;;0.08;87.67
43681;BME280;29281;50.356;30.894;2022-11-20T02:46:48;100651.19;;;0.07;87.95
43681;BME280;29281;50.356;30.894;2022-11-20T02:47:51;100665.92;;;0.11;88.43
43681;BME280;29281;50.356;30.894;2022-11-20T02:48:54;100664.93;;;0.16;87.85
43681;BME280;29281;50.356;30.894;2022-11-20T02:49:59;100662.27;;;0.19;87.56
43681;BME280;29281;50.356;30.894;2022-11-20T02:51:02;100668.31;;;0.23;87.35
43681;BME280;29281;50.356;30.894;2022-11-20T02:52:06;100672.72;;;0.19;86.84
43681;BME280;29281;50.356;30.894;2022-11-20T02:53:10;100663.18;;;0.17;86.91
43681;BME280;29281;50.356;30.894;2022-11-20T02:54:13;100663.31;;;0.11;87.54
43681;BME280;29281;50.356;30.894;2022-11-20T02:55:17;100664.25;;;0.07;87.76
43681;BME280;29281;50.356;30.894;2022-11-20T02:56:20;100665.99;;;0.06;87.35
43681;BME280;29281;50.356;30.894;2022-11-20T02:57:22;100659.07;;;0.04;88.11
43681;BME280;29281;50.356;30.894;2022-11-20T02:58:26;100669.45;;;0.08;87.61
43681;BME280;29281;50.356;30.894;2022-11-20T02:59:28;100664.20;;;0.10;87.23
43681;BME280;29281;50.356;30.894;2022-11-20T03:00:32;100667.77;;;0.04;88.38
43681;BME280;29281;50.356;30.894;2022-11-20T03:01:41;100667.03;;;-0.03;87.41
43681;BME280;29281;50.356;30.894;2022-11-20T03:02:44;100666.19;;;-0.05;87.74
43681;BME280;29281;50.356;30.894;2022-11-20T03:03:47;100663.56;;;-0.03;87.45
43681;BME280;29281;50.356;30.894;2022-11-20T03:04:51;100662.77;;;-0.08;88.30
43681;BME280;29281;50.356;30.894;2022-11-20T03:05:54;100661.99;;;-0.15;88.86
43681;BME280;29281;50.356;30.894;2022-11-20T03:06:57;100670.79;;;-0.19;89.08
43681;BME280;29281;50.356;30.894;2022-11-20T03:08:03;100671.57;;;-0.15;89.49
43681;BME280;29281;50.356;30.894;2022-11-20T03:09:05;100670.59;;;-0.08;89.57
43681;BME280;29281;50.356;30.894;2022-11-20T03:10:09;100676.70;;;-0.09;89.56
43681;BME280;29281;50.356;30.894;2022-11-20T03:11:12;100680.13;;;-0.06;89.96
43681;BME280;29281;50.356;30.894;2022-11-20T03:12:15;100674.11;;;-0.11;91.09
43681;BME280;29281;50.356;30.894;2022-11-20T03:13:18;100678.47;;;-0.11;90.76
43681;BME280;29281;50.356;30.894;2022-11-20T03:14:21;100682.72;;;-0.04;90.31
43681;BME280;29281;50.356;30.894;2022-11-20T03:15:24;100680.87;;;0.01;89.42
43681;BME280;29281;50.356;30.894;2022-11-20T03:16:28;100676.51;;;0.02;88.88
43681;BME280;29281;50.356;30.894;2022-11-20T03:17:34;100681.69;;;0.05;89.47
43681;BME280;29281;50.356;30.894;2022-11-20T03:18:38;100686.95;;;0.02;89.94
43681;BME280;29281;50.356;30.894;2022-11-20T03:19:40;100674.84;;;-0.01;89.22
43681;BME280;29281;50.356;30.894;2022-11-20T03:20:43;100672.30;;;-0.06;90.21
43681;BME280;29281;50.356;30.894;2022-11-20T03:21:47;100672.13;;;0.04;89.08
43681;BME280;29281;50.356;30.894;2022-11-20T03:22:54;100673.88;;;0.03;88.54
43681;BME280;29281;50.356;30.894;2022-11-20T03:23:58;100671.22;;;0.06;87.91
43681;BME280;29281;50.356;30.894;2022-11-20T03:25:01;100675.62;;;0.03;88.30
43681;BME280;29281;50.356;30.894;2022-11-20T03:26:11;100675.70;;;-0.01;89.06
43681;BME280;29281;50.356;30.894;2022-11-20T03:27:14;100674.84;;;-0.01;88.87
43681;BME280;29281;50.356;30.894;2022-11-20T03:28:17;100682.62;;;0.00;88.52
43681;BME280;29281;50.356;30.894;2022-11-20T03:29:20;100675.70;;;-0.01;88.52
43681;BME280;29281;50.356;30.894;2022-11-20T03:30:24;100683.39;;;0.07;88.51
43681;BME280;29281;50.356;30.894;2022-11-20T03:31:31;100687.75;;;0.07;88.64
43681;BME280;29281;50.356;30.894;2022-11-20T03:32:33;100690.50;;;-0.01;89.43
43681;BME280;29281;50.356;30.894;2022-11-20T03:33:36;100691.37;;;-0.01;89.97
43681;BME280;29281;50.356;30.894;2022-11-20T03:34:40;100692.17;;;0.02;88.87
43681;BME280;29281;50.356;30.894;2022-11-20T03:35:43;100685.31;;;-0.03;89.24
43681;BME280;29281;50.356;30.894;2022-11-20T03:36:46;100693.06;;;0.00;89.24
43681;BME280;29281;50.356;30.894;2022-11-20T03:37:50;100694.77;;;0.03;88.16
43681;BME280;29281;50.356;30.894;2022-11-20T03:38:57;100693.92;;;0.01;88.06
43681;BME280;29281;50.356;30.894;2022-11-20T03:39:57;100696.53;;;0.01;88.59
43681;BME280;29281;50.356;30.894;2022-11-20T03:41:08;100707.80;;;0.05;88.20
43681;BME280;29281;50.356;30.894;2022-11-20T03:42:08;100700.78;;;0.08;87.57
43681;BME280;29281;50.356;30.894;2022-11-20T03:43:12;100693.81;;;0.09;88.24
43681;BME280;29281;50.356;30.894;2022-11-20T03:44:15;100701.69;;;0.06;87.95
43681;BME280;29281;50.356;30.894;2022-11-20T03:45:18;100698.22;;;0.05;87.74
43681;BME280;29281;50.356;30.894;2022-11-20T03:46:22;100700.83;;;0.05;87.97
43681;BME280;29281;50.356;30.894;2022-11-20T03:47:24;100704.28;;;0.07;87.82
43681;BME280;29281;50.356;30.894;2022-11-20T03:48:28;100714.68;;;0.10;87.52
43681;BME280;29281;50.356;30.894;2022-11-20T03:49:32;100706.77;;;0.15;87.38
43681;BME280;29281;50.356;30.894;2022-11-20T03:50:34;100703.46;;;0.04;87.93
43681;BME280;29281;50.356;30.894;2022-11-20T03:51:37;100702.53;;;0.08;87.79
43681;BME280;29281;50.356;30.894;2022-11-20T03:52:43;100705.07;;;0.12;87.65
43681;BME280;29281;50.356;30.894;2022-11-20T03:53:46;100709.41;;;0.13;88.72
43681;BME280;29281;50.356;30.894;2022-11-20T03:54:51;100698.94;;;0.15;87.81
43681;BME280;29281;50.356;30.894;2022-11-20T03:55:55;100697.23;;;0.12;87.58
43681;BME280;29281;50.356;30.894;2022-11-20T03:56:58;100697.23;;;0.12;87.76
43681;BME280;29281;50.356;30.894;2022-11-20T03:58:03;100699.01;;;0.10;87.58
43681;BME280;29281;50.356;30.894;2022-11-20T03:59:09;100700.63;;;0.16;87.05
43681;BME280;29281;50.356;30.894;2022-11-20T04:00:16;100696.35;;;0.13;87.26
43681;BME280;29281;50.356;30.894;2022-11-20T04:01:21;100700.83;;;0.05;87.46
43681;BME280;29281;50.356;30.894;2022-11-20T04:02:25;100694.67;;;0.09;87.69
43681;BME280;29281;50.356;30.894;2022-11-20T04:03:27;100696.35;;;0.13;87.55
43681;BME280;29281;50.356;30.894;2022-11-20T04:04:29;100694.58;;;0.15;87.82
43681;BME280;29281;50.356;30.894;2022-11-20T04:05:33;100693.66;;;0.16;87.59
43681;BME280;29281;50.356;30.894;2022-11-20T04:06:39;100683.19;;;0.18;87.99
43681;BME280;29281;50.356;30.894;2022-11-20T04:07:43;100693.66;;;0.16;87.32
43681;BME280;29281;50.356;30.894;2022-11-20T04:08:46;100691.10;;;0.15;87.26
43681;BME280;29281;50.356;30.894;2022-11-20T04:09:50;100692.04;;;0.11;87.11
43681;BME280;29281;50.356;30.894;2022-11-20T04:10:53;100692.04;;;0.11;86.97
43681;BME280;29281;50.356;30.894;2022-11-20T04:11:57;100687.67;;;0.11;87.73
43681;BME280;29281;50.356;30.894;2022-11-20T04:12:59;100685.11;;;0.08;87.68
43681;BME280;29281;50.356;30.894;2022-11-20T04:14:04;100691.27;;;0.04;87.30
43681;BME280;29281;50.356;30.894;2022-11-20T04:15:08;100683.45;;;0.03;87.74
43681;BME280;29281;50.356;30.894;2022-11-20T04:16:12;100690.36;;;0.07;87.73
43681;BME280;29281;50.356;30.894;2022-11-20T04:17:14;100683.39;;;0.07;87.90
43681;BME280;29281;50.356;30.894;2022-11-20T04:18:19;100678.12;;;0.10;88.05
43681;BME280;29281;50.356;30.894;2022-11-20T04:19:23;100673.71;;;0.14;87.68
43681;BME280;29281;50.356;30.894;2022-11-20T04:20:28;100675.53;;;0.09;87.71
43681;BME280;29281;50.356;30.894;2022-11-20T04:21:32;100678.93;;;0.14;88.10
43681;BME280;29281;50.356;30.894;2022-11-20T04:22:34;100682.57;;;0.04;88.48
43681;BME280;29281;50.356;30.894;2022-11-20T04:23:38;100680.78;;;0.07;88.28
43681;BME280;29281;50.356;30.894;2022-11-20T04:24:42;100679.05;;;0.06;88.40
43681;BME280;29281;50.356;30.894;2022-11-20T04:25:46;100675.48;;;0.12;88.35
43681;BME280;29281;50.356;30.894;2022-11-20T04:26:50;100678.95;;;0.12;88.73
43681;BME280;29281;50.356;30.894;2022-11-20T04:27:52;100675.53;;;0.09;89.05
43681;BME280;29281;50.356;30.894;2022-11-20T04:28:56;100669.45;;;0.08;89.45
43681;BME280;29281;50.356;30.894;2022-11-20T04:29:58;100665.03;;;0.12;89.51
43681;BME280;29281;50.356;30.894;2022-11-20T04:31:08;100672.03;;;0.10;88.58
43681;BME280;29281;50.356;30.894;2022-11-20T04:32:09;100671.14;;;0.11;88.41
43681;BME280;29281;50.356;30.894;2022-11-20T04:33:12;100666.91;;;0.04;88.53
43681;BME280;29281;50.356;30.894;2022-11-20T04:34:15;100677.34;;;0.04;88.90
43681;BME280;29281;50.356;30.894;2022-11-20T04:35:19;100675.60;;;0.04;88.87
43681;BME280;29281;50.356;30.894;2022-11-20T04:36:25;100667.72;;;0.07;88.69
43681;BME280;29281;50.356;30.894;2022-11-20T04:37:29;100671.09;;;0.14;88.69
43681;BME280;29281;50.356;30.894;2022-11-20T04:38:35;100669.24;;;0.19;89.06
43681;BME280;29281;50.356;30.894;2022-11-20T04:39:40;100673.53;;;0.23;89.07
43681;BME280;29281;50.356;30.894;2022-11-20T04:40:43;100664.00;;;0.20;88.58
43681;BME280;29281;50.356;30.894;2022-11-20T04:41:46;100681.37;;;0.23;88.61
43681;BME280;29281;50.356;30.894;2022-11-20T04:42:49;100677.87;;;0.24;88.33
43681;BME280;29281;50.356;30.894;2022-11-20T04:43:53;100676.98;;;0.25;87.98
43681;BME280;29281;50.356;30.894;2022-11-20T04:44:58;100667.37;;;0.27;87.51
43681;BME280;29281;50.356;30.894;2022-11-20T04:46:02;100666.48;;;0.28;88.44
43681;BME280;29281;50.356;30.894;2022-11-20T04:47:05;100661.15;;;0.32;88.35
43681;BME280;29281;50.356;30.894;2022-11-20T04:48:08;100657.78;;;0.27;87.72
43681;BME280;29281;50.356;30.894;2022-11-20T04:49:12;100648.09;;;0.32;87.15
43681;BME280;29281;50.356;30.894;2022-11-20T04:50:15;100654.15;;;0.34;86.77
43681;BME280;29281;50.356;30.894;2022-11-20T04:51:20;100649.81;;;0.33;87.12
43681;BME280;29281;50.356;30.894;2022-11-20T04:52:22;100648.11;;;0.31;87.22
43681;BME280;29281;50.356;30.894;2022-11-20T04:53:25;100646.36;;;0.31;87.42
43681;BME280;29281;50.356;30.894;2022-11-20T04:54:28;100644.56;;;0.35;87.31
43681;BME280;29281;50.356;30.894;2022-11-20T04:55:33;100639.36;;;0.33;87.82
43681;BME280;29281;50.356;30.894;2022-11-20T04:56:36;100641.95;;;0.35;87.62
43681;BME280;29281;50.356;30.894;2022-11-20T04:57:39;100634.14;;;0.33;87.89
43681;BME280;29281;50.356;30.894;2022-11-20T04:58:44;100628.00;;;0.36;87.89
43681;BME280;29281;50.356;30.894;2022-11-20T04:59:47;100625.52;;;0.30;87.41
43681;BME280;29281;50.356;30.894;2022-11-20T05:00:50;100618.66;;;0.24;87.29
43681;BME280;29281;50.356;30.894;2022-11-20T05:01:54;100612.59;;;0.22;87.31
43681;BME280;29281;50.356;30.894;2022-11-20T05:02:56;100610.73;;;0.29;87.68
43681;BME280;29281;50.356;30.894;2022-11-20T05:03:59;100614.27;;;0.26;87.72
43681;BME280;29281;50.356;30.894;2022-11-20T05:05:03;100616.87;;;0.26;87.61
43681;BME280;29281;50.356;30.894;2022-11-20T05:06:07;100607.27;;;0.28;88.09
43681;BME280;29281;50.356;30.894;2022-11-20T05:07:10;100609.77;;;0.33;87.47
43681;BME280;29281;50.356;30.894;2022-11-20T05:08:12;100606.23;;;0.35;87.07
43681;BME280;29281;50.356;30.894;2022-11-20T05:09:15;100606.20;;;0.37;87.32
43681;BME280;29281;50.356;30.894;2022-11-20T05:10:19;100602.81;;;0.32;87.23
43681;BME280;29281;50.356;30.894;2022-11-20T05:11:22;100602.90;;;0.29;87.08
43681;BME280;29281;50.356;30.894;2022-11-20T05:12:25;100607.05;;;0.39;86.91
43681;BME280;29281;50.356;30.894;2022-11-20T05:13:28;100605.30;;;0.40;87.52
43681;BME280;29281;50.356;30.894;2022-11-20T05:14:32;100606.29;;;0.32;87.81
43681;BME280;29281;50.356;30.894;2022-11-20T05:15:36;100610.77;;;0.27;88.09
43681;BME280;29281;50.356;30.894;2022-11-20T05:16:39;100622.75;;;0.38;87.61
43681;BME280;29281;50.356;30.894;2022-11-20T05:17:49;100617.74;;;0.27;88.09
43681;BME280;29281;50.356;30.894;2022-11-20T05:18:53;100615.08;;;0.30;87.86
43681;BME280;29281;50.356;30.894;2022-11-20T05:19:56;100617.77;;;0.25;87.69
43681;BME280;29281;50.356;30.894;2022-11-20T05:21:02;100609.14;;;0.20;87.73
43681;BME280;29281;50.356;30.894;2022-11-20T05:22:06;100607.42;;;0.19;87.79
43681;BME280;29281;50.356;30.894;2022-11-20T05:23:10;100613.43;;;0.24;87.75
43681;BME280;29281;50.356;30.894;2022-11-20T05:24:13;100607.53;;;0.15;88.15
43681;BME280;29281;50.356;30.894;2022-11-20T05:25:16;100604.00;;;0.16;88.65
43681;BME280;29281;50.356;30.894;2022-11-20T05:26:21;100604.92;;;0.15;88.80
43681;BME280;29281;50.356;30.894;2022-11-20T05:27:23;100618.76;;;0.18;88.57
43681;BME280;29281;50.356;30.894;2022-11-20T05:28:27;100618.78;;;0.17;88.58
43681;BME280;29281;50.356;30.894;2022-11-20T05:29:30;100622.20;;;0.20;88.77
43681;BME280;29281;50.356;30.894;2022-11-20T05:30:33;100616.98;;;0.20;88.85
43681;BME280;29281;50.356;30.894;2022-11-20T05:31:38;100621.45;;;0.15;89.12
43681;BME280;29281;50.356;30.894;2022-11-20T05:32:44;100619.62;;;0.19;88.96
43681;BME280;29281;50.356;30.894;2022-11-20T05:33:47;100615.20;;;0.22;88.72
43681;BME280;29281;50.356;30.894;2022-11-20T05:34:52;100619.48;;;0.26;88.55
43681;BME280;29281;50.356;30.894;2022-11-20T05:35:59;100616.87;;;0.26;88.44
43681;BME280;29281;50.356;30.894;2022-11-20T05:37:06;100613.51;;;0.20;89.11
43681;BME280;29281;50.356;30.894;2022-11-20T05:38:09;100609.20;;;0.17;89.18
43681;BME280;29281;50.356;30.894;2022-11-20T05:39:13;100602.20;;;0.19;89.08